^^
Saratoga-Weather Station Historical Data
Daily Summary for August 19, 2020 Units:  English    Metric   Both
Daily Weekly Monthly Yearly Custom
  High: Low: Average:
Temperature: 56.8 °F 42.3 °F 48 °F
Dew Point: 48.4 °F 39.7 °F 43.7 °F
Humidity: 96% 60% 86%
Wind Speed: 4mph 0mph 0.4mph
Wind Gust: 7mph - -
Wind- - ESE
Pressure: 30.2 in 30 in -
Precipitation: 0 in    
Historical Graphs
 
 
Tabular Data for August 19, 2020
Time Temperature Dew Point Pressure Wind Wind Speed Wind Gust Humidity Rainfall Rate (Hourly) solar
00:04 46.4 °F 44.2 °F 30.2 in West 0.9 mph 1 mph 92% 0 in 0 W/m2
00:09 46.4 °F 44.4 °F 30.2 in Calm     93% 0 in 0 W/m2
00:14 46.2 °F 44.2 °F 30.2 in Calm     93% 0 in 0 W/m2
00:19 46.2 °F 44.2 °F 30.2 in Calm     93% 0 in 0 W/m2
00:24 46.4 °F 44.4 °F 30.2 in Calm     93% 0 in 0 W/m2
00:29 46.4 °F 44.4 °F 30.2 in WNW 0.9 mph 1 mph 93% 0 in 0 W/m2
00:34 46.6 °F 44.6 °F 30.2 in Calm     93% 0 in 0 W/m2
00:39 46.6 °F 44.6 °F 30.2 in Calm     93% 0 in 0 W/m2
00:44 46.6 °F 44.6 °F 30.2 in Calm     93% 0 in 0 W/m2
00:49 46.6 °F 44.6 °F 30.2 in Calm     93% 0 in 0 W/m2
00:54 46.6 °F 44.6 °F 30.2 in Calm   1 mph 93% 0 in 0 W/m2
00:59 46.6 °F 44.6 °F 30.2 in Calm     93% 0 in 0 W/m2
01:04 46.4 °F 44.4 °F 30.2 in Calm     93% 0 in 0 W/m2
01:09 46.4 °F 44.4 °F 30.2 in Calm     93% 0 in 0 W/m2
01:14 46.2 °F 44.6 °F 30.2 in Calm     94% 0 in 0 W/m2
01:19 46.2 °F 44.2 °F 30.2 in Calm     93% 0 in 0 W/m2
01:24 46.2 °F 44.2 °F 30.2 in Calm     93% 0 in 0 W/m2
01:29 46.2 °F 44.6 °F 30.2 in Calm     94% 0 in 0 W/m2
01:34 46 °F 44.4 °F 30.2 in Calm     94% 0 in 0 W/m2
01:39 46.2 °F 44.6 °F 30.2 in Calm     94% 0 in 0 W/m2
01:44 46.2 °F 44.6 °F 30.2 in Calm     94% 0 in 0 W/m2
01:49 46.2 °F 44.6 °F 30.2 in Calm     94% 0 in 0 W/m2
01:54 46.2 °F 44.6 °F 30.2 in Calm     94% 0 in 0 W/m2
01:59 46 °F 44.4 °F 30.2 in Calm     94% 0 in 0 W/m2
02:04 46 °F 44.4 °F 30.2 in Calm     94% 0 in 0 W/m2
02:09 46 °F 44.4 °F 30.2 in Calm     94% 0 in 0 W/m2
02:14 46 °F 44.4 °F 30.2 in Calm     94% 0 in 0 W/m2
02:19 46 °F 44.4 °F 30.2 in Calm     94% 0 in 0 W/m2
02:24 46 °F 44.4 °F 30.2 in Calm     94% 0 in 0 W/m2
02:29 46 °F 44.4 °F 30.2 in Calm     94% 0 in 0 W/m2
02:35 46 °F 44.4 °F 30.2 in Calm     94% 0 in 0 W/m2
02:40 46 °F 44.4 °F 30.2 in Calm     94% 0 in 0 W/m2
02:45 46 °F 44.4 °F 30.2 in Calm     94% 0 in 0 W/m2
02:50 45.9 °F 44.2 °F 30.2 in Calm     94% 0 in 0 W/m2
02:55 45.9 °F 44.2 °F 30.2 in Calm     94% 0 in 0 W/m2
03:00 45.9 °F 44.2 °F 30.2 in Calm     94% 0 in 0 W/m2
03:05 45.9 °F 44.2 °F 30.2 in Calm     94% 0 in 0 W/m2
03:10 45.9 °F 44.2 °F 30.2 in Calm     94% 0 in 0 W/m2
03:15 45.9 °F 44.2 °F 30.2 in Calm     94% 0 in 0 W/m2
03:20 45.9 °F 44.2 °F 30.2 in Calm     94% 0 in 0 W/m2
03:25 45.9 °F 44.2 °F 30.2 in Calm     94% 0 in 0 W/m2
03:30 45.9 °F 44.2 °F 30.2 in Calm     94% 0 in 0 W/m2
03:35 45.9 °F 44.2 °F 30.2 in Calm   2 mph 94% 0 in 0 W/m2
03:40 45.9 °F 44.2 °F 30.2 in Calm     94% 0 in 0 W/m2
03:45 45.9 °F 44.4 °F 30.2 in Calm   2 mph 95% 0 in 0 W/m2
03:50 45.9 °F 44.4 °F 30.2 in Calm     95% 0 in 0 W/m2
03:55 45.9 °F 44.4 °F 30.2 in Calm     95% 0 in 0 W/m2
04:00 45.9 °F 44.4 °F 30.2 in Calm     95% 0 in 0 W/m2
04:05 45.9 °F 44.4 °F 30.2 in Calm     95% 0 in 0 W/m2
04:10 45.9 °F 44.4 °F 30.2 in Calm     95% 0 in 0 W/m2
04:15 45.9 °F 44.4 °F 30.2 in Calm     95% 0 in 0 W/m2
04:20 45.9 °F 44.4 °F 30.2 in Calm     95% 0 in 0 W/m2
04:25 45.9 °F 44.4 °F 30.2 in Calm     95% 0 in 0 W/m2
04:30 45.9 °F 44.4 °F 30.2 in Calm     95% 0 in 0 W/m2
04:35 45.9 °F 44.4 °F 30.2 in Calm     95% 0 in 0 W/m2
04:40 45.9 °F 44.4 °F 30.2 in Calm     95% 0 in 0 W/m2
04:46 45.9 °F 44.4 °F 30.2 in Calm     95% 0 in 0 W/m2
04:51 45.9 °F 44.4 °F 30.2 in Calm     95% 0 in 0 W/m2
04:56 45.9 °F 44.4 °F 30.2 in Calm     95% 0 in 0 W/m2
05:01 45.9 °F 44.4 °F 30.2 in Calm     95% 0 in 0 W/m2
05:06 45.9 °F 44.4 °F 30.2 in Calm     95% 0 in 0 W/m2
05:11 45.9 °F 44.4 °F 30.2 in Calm     95% 0 in 0 W/m2
05:16 45.9 °F 44.4 °F 30.2 in Calm     95% 0 in 0 W/m2
05:21 45.9 °F 44.4 °F 30.2 in Calm     95% 0 in 0 W/m2
05:26 45.9 °F 44.4 °F 30.2 in Calm     95% 0 in 0 W/m2
05:31 45.7 °F 44.4 °F 30.2 in Calm     95% 0 in 0 W/m2
05:36 45.7 °F 44.4 °F 30.2 in Calm     95% 0 in 0 W/m2
05:41 45.7 °F 44.4 °F 30.2 in Calm     95% 0 in 0 W/m2
05:46 45.7 °F 44.4 °F 30.2 in Calm     95% 0 in 0 W/m2
05:51 45.7 °F 44.4 °F 30.2 in Calm     95% 0 in 0 W/m2
05:56 45.7 °F 44.4 °F 30.2 in Calm     95% 0 in 0 W/m2
06:01 45.5 °F 44.2 °F 30.2 in Calm     95% 0 in 0 W/m2
06:06 45.5 °F 44.2 °F 30.2 in Calm     95% 0 in 0 W/m2
06:11 45.3 °F 44.1 °F 30.2 in Calm     95% 0 in 0 W/m2
06:16 45.3 °F 44.1 °F 30.2 in Calm     95% 0 in 0 W/m2
06:21 45.3 °F 44.1 °F 30.2 in Calm     95% 0 in 0 W/m2
06:26 45.3 °F 44.1 °F 30.2 in Calm     95% 0 in 0 W/m2
06:31 45.1 °F 43.9 °F 30.2 in Calm     95% 0 in 0 W/m2
06:36 45.1 °F 43.9 °F 30.2 in Calm     95% 0 in 0 W/m2
06:41 45.1 °F 43.9 °F 30.2 in Calm     95% 0 in 0 W/m2
06:46 45.1 °F 43.9 °F 30.2 in Calm     95% 0 in 0 W/m2
06:51 45.1 °F 43.9 °F 30.2 in Calm     95% 0 in 0 W/m2
06:56 45.1 °F 43.9 °F 30.2 in Calm     95% 0 in 0 W/m2
07:02 45.1 °F 43.9 °F 30.2 in Calm     95% 0 in 0 W/m2
07:07 45 °F 43.7 °F 30.2 in Calm     95% 0 in 0 W/m2
07:12 45 °F 43.7 °F 30.2 in Calm     95% 0 in 0 W/m2
07:17 45 °F 43.7 °F 30.2 in Calm     95% 0 in 0 W/m2
07:22 45 °F 43.7 °F 30.2 in Calm     95% 0 in 0 W/m2
07:27 44.8 °F 43.5 °F 30.2 in Calm     95% 0 in 0 W/m2
07:37 44.8 °F 43.5 °F 30.2 in Calm     95% 0 in 0 W/m2
07:42 44.4 °F 43.2 °F 30.2 in Calm     95% 0 in 0 W/m2
07:47 44.4 °F 43.2 °F 30.2 in Calm     95% 0 in 0 W/m2
07:52 44.2 °F 43 °F 30.2 in Calm     95% 0 in 0 W/m2
07:57 44.2 °F 43 °F 30.2 in Calm     95% 0 in 5 W/m2
08:02 44.1 °F 42.8 °F 30.2 in Calm     95% 0 in 5 W/m2
08:07 43.9 °F 42.6 °F 30.2 in Calm     95% 0 in 7 W/m2
08:12 43.7 °F 42.4 °F 30.2 in Calm     95% 0 in 9 W/m2
08:17 43.5 °F 42.3 °F 30.2 in Calm     95% 0 in 12 W/m2
08:22 43.3 °F 42.1 °F 30.2 in Calm     95% 0 in 16 W/m2
08:27 43.3 °F 42.1 °F 30.2 in Calm     95% 0 in 23 W/m2
08:32 43.3 °F 42.1 °F 30.2 in Calm     95% 0 in 30 W/m2
08:37 43.2 °F 41.9 °F 30.2 in Calm     95% 0 in 46 W/m2
08:42 43.3 °F 42.1 °F 30.2 in Calm     95% 0 in 51 W/m2
08:47 43.3 °F 42.1 °F 30.2 in Calm     95% 0 in 49 W/m2
08:52 43.5 °F 42.4 °F 30.2 in Calm     96% 0 in 49 W/m2
08:57 43.7 °F 42.6 °F 30.2 in Calm     96% 0 in 63 W/m2
09:02 43.9 °F 42.8 °F 30.2 in Calm     96% 0 in 58 W/m2
09:07 44.1 °F 43 °F 30.2 in Calm     96% 0 in 51 W/m2
09:12 44.2 °F 43.2 °F 30.2 in Calm     96% 0 in 54 W/m2
09:17 44.4 °F 43.3 °F 30.2 in Calm     96% 0 in 62 W/m2
09:22 44.6 °F 43.5 °F 30.2 in Calm     96% 0 in 77 W/m2
09:27 45 °F 43.9 °F 30.2 in Calm     96% 0 in 83 W/m2
09:32 45.1 °F 44.1 °F 30.2 in Calm     96% 0 in 91 W/m2
09:37 45.1 °F 44.1 °F 30.2 in Calm     96% 0 in 88 W/m2
09:42 45.3 °F 44.2 °F 30.2 in Calm     96% 0 in 81 W/m2
09:47 45.7 °F 44.6 °F 30.2 in Calm   1 mph 96% 0 in 118 W/m2
09:52 45.7 °F 44.6 °F 30.2 in Calm   2 mph 96% 0 in 148 W/m2
09:57 45.9 °F 44.8 °F 30.2 in NE 0.9 mph 1 mph 96% 0 in 151 W/m2
10:02 46 °F 45 °F 30.2 in NE 0.9 mph 2 mph 96% 0 in 134 W/m2
10:07 46 °F 45 °F 30.2 in NE 0.9 mph 2 mph 96% 0 in 109 W/m2
10:12 46 °F 45 °F 30.2 in NE 0.9 mph 2 mph 96% 0 in 107 W/m2
10:17 46 °F 45 °F 30.2 in Calm   1 mph 96% 0 in 93 W/m2
10:22 46 °F 45 °F 30.2 in NE 0.9 mph 2 mph 96% 0 in 104 W/m2
10:27 46.2 °F 45.1 °F 30.2 in Calm   2 mph 96% 0 in 120 W/m2
10:32 46.2 °F 45.1 °F 30.2 in NE 0.9 mph 1 mph 96% 0 in 93 W/m2
10:37 46.4 °F 45.3 °F 30.2 in NE 2 mph 2 mph 96% 0 in 123 W/m2
10:42 46.6 °F 45.5 °F 30.2 in NE 0.9 mph 2 mph 96% 0 in 109 W/m2
10:47 46.8 °F 45.7 °F 30.2 in ENE 2 mph 3 mph 96% 0 in 114 W/m2
10:52 46.9 °F 45.9 °F 30.2 in ENE 0.9 mph 2 mph 96% 0 in 279 W/m2
10:57 47.1 °F 46 °F 30.2 in NE 0.9 mph 2 mph 96% 0 in 128 W/m2
11:02 47.1 °F 45.7 °F 30.2 in NNE 0.9 mph 1 mph 95% 0 in 118 W/m2
11:07 47.3 °F 45.9 °F 30.2 in Calm     95% 0 in 111 W/m2
11:12 47.5 °F 46 °F 30.2 in Calm     95% 0 in 123 W/m2
11:17 47.7 °F 46.2 °F 30.2 in Calm   2 mph 95% 0 in 135 W/m2
11:22 48 °F 46.6 °F 30.2 in Calm   3 mph 95% 0 in 118 W/m2
11:27 48.6 °F 47.1 °F 30.2 in East 0.9 mph 2 mph 95% 0 in 125 W/m2
11:32 48.9 °F 47.5 °F 30.2 in ENE 0.9 mph 3 mph 95% 0 in 213 W/m2
11:37 49.5 °F 47.8 °F 30.2 in Calm     94% 0 in 436 W/m2
11:42 49.8 °F 47.8 °F 30.2 in Calm     93% 0 in 374 W/m2
11:48 50.4 °F 48.2 °F 30.2 in SW 0.9 mph 2 mph 92% 0 in 118 W/m2
11:53 50.4 °F 47.8 °F 30.2 in Calm   2 mph 91% 0 in 158 W/m2
11:58 50.7 °F 48.2 °F 30.2 in Calm     91% 0 in 123 W/m2
12:03 50.9 °F 48 °F 30.2 in Calm   3 mph 90% 0 in 121 W/m2
12:08 51.1 °F 48 °F 30.2 in Calm   2 mph 89% 0 in 93 W/m2
12:13 51.3 °F 47.8 °F 30.2 in East 0.9 mph 2 mph 88% 0 in 113 W/m2
12:18 51.4 °F 48 °F 30.2 in Calm   1 mph 88% 0 in 114 W/m2
12:23 51.6 °F 47.8 °F 30.2 in Calm     87% 0 in 125 W/m2
12:28 51.6 °F 47.8 °F 30.2 in WNW 0.9 mph 3 mph 87% 0 in 120 W/m2
12:33 52 °F 48.2 °F 30.2 in NW 0.9 mph 1 mph 87% 0 in 234 W/m2
12:38 52.3 °F 48.2 °F 30.2 in West 2 mph 3 mph 86% 0 in 206 W/m2
12:43 52.3 °F 47.7 °F 30.2 in West 0.9 mph 2 mph 84% 0 in 142 W/m2
12:48 52.5 °F 47.8 °F 30.2 in North 3 mph 3 mph 84% 0 in 118 W/m2
12:53 52.9 °F 48.2 °F 30.2 in Calm   2 mph 84% 0 in 531 W/m2
12:58 53.4 °F 48 °F 30.2 in Calm   4 mph 82% 0 in 522 W/m2
13:03 54.1 °F 47.5 °F 30.2 in East 2.9 mph 6 mph 78% 0 in 229 W/m2
13:08 54.3 °F 48 °F 30.2 in ENE 2 mph 5 mph 79% 0 in 127 W/m2
13:13 54.7 °F 48.4 °F 30.2 in East 0.9 mph 5 mph 79% 0 in 160 W/m2
13:18 54.9 °F 47.8 °F 30.2 in ESE 0.9 mph 3 mph 77% 0 in 313 W/m2
13:23 54.9 °F 47.5 °F 30.2 in East 0.9 mph 3 mph 76% 0 in 109 W/m2
13:28 54.9 °F 46 °F 30.2 in SSE 2 mph 3 mph 72% 0 in 116 W/m2
13:33 55 °F 46.2 °F 30.2 in NE 2 mph 3 mph 72% 0 in 213 W/m2
13:38 55 °F 45.5 °F 30.2 in Calm   3 mph 70% 0 in 70 W/m2
13:43 55 °F 45.9 °F 30.2 in ESE 0.9 mph 3 mph 71% 0 in 91 W/m2
13:48 55 °F 45.5 °F 30.2 in East 0.9 mph 7 mph 70% 0 in 72 W/m2
13:53 55 °F 45.1 °F 30.1 in SSE 0.9 mph 1 mph 69% 0 in 93 W/m2
13:58 55 °F 44.6 °F 30.1 in ESE 4 mph 7 mph 68% 0 in 83 W/m2
14:03 55 °F 44.2 °F 30.1 in ESE 2 mph 3 mph 67% 0 in 84 W/m2
14:08 55.2 °F 44.8 °F 30.1 in SSE 0.9 mph 5 mph 68% 0 in 139 W/m2
14:13 55.6 °F 44.4 °F 30.1 in ENE 0.9 mph 4 mph 66% 0 in 167 W/m2
14:18 55.8 °F 43.7 °F 30.1 in ENE 4 mph 7 mph 64% 0 in 190 W/m2
14:23 55.9 °F 43.2 °F 30.1 in NNE 2.9 mph 4 mph 62% 0 in 169 W/m2
14:28 56.1 °F 42.8 °F 30.1 in ENE 2 mph 5 mph 61% 0 in 144 W/m2
14:33 56.1 °F 43.7 °F 30.1 in Calm   3 mph 63% 0 in 141 W/m2
14:38 56.1 °F 43.3 °F 30.1 in ENE 0.9 mph 2 mph 62% 0 in 155 W/m2
14:43 55.9 °F 42.6 °F 30.1 in East 0.9 mph 4 mph 61% 0 in 160 W/m2
14:48 55.9 °F 43.9 °F 30.1 in East 0.9 mph 3 mph 64% 0 in 155 W/m2
14:53 55.8 °F 42.1 °F 30.1 in Calm   2 mph 60% 0 in 162 W/m2
14:58 55.8 °F 43.3 °F 30.1 in East 2 mph 4 mph 63% 0 in 165 W/m2
15:03 55.8 °F 43.3 °F 30.1 in ENE 2 mph 3 mph 63% 0 in 165 W/m2
15:08 55.8 °F 43.3 °F 30.1 in East 2 mph 4 mph 63% 0 in 149 W/m2
15:13 55.6 °F 43.2 °F 30.1 in East 2 mph 4 mph 63% 0 in 155 W/m2
15:18 55.6 °F 43.2 °F 30.1 in ENE 0.9 mph 3 mph 63% 0 in 151 W/m2
15:23 55.6 °F 42.3 °F 30.1 in SE 0.9 mph 2 mph 61% 0 in 151 W/m2
15:28 55.6 °F 42.8 °F 30.1 in East 0.9 mph 2 mph 62% 0 in 151 W/m2
15:33 55.8 °F 43 °F 30.1 in ENE 0.9 mph 3 mph 62% 0 in 195 W/m2
15:38 56.1 °F 43.3 °F 30.1 in NNE 2.9 mph 3 mph 62% 0 in 211 W/m2
15:43 56.7 °F 44.2 °F 30.1 in Calm   3 mph 63% 0 in 200 W/m2
15:48 56.8 °F 43.9 °F 30.1 in East 0.9 mph 2 mph 62% 0 in 214 W/m2
15:53 56.8 °F 43.5 °F 30.1 in NE 2 mph 2 mph 61% 0 in 162 W/m2
15:58 56.8 °F 43.2 °F 30.1 in ENE 2 mph 5 mph 60% 0 in 127 W/m2
16:03 56.7 °F 43.3 °F 30.1 in Calm   6 mph 61% 0 in 77 W/m2
16:08 56.5 °F 42.8 °F 30.1 in ESE 0.9 mph 4 mph 60% 0 in 84 W/m2
16:13 56.1 °F 43.3 °F 30.1 in Calm   5 mph 62% 0 in 81 W/m2
16:18 55.8 °F 42.1 °F 30.1 in Calm   2 mph 60% 0 in 70 W/m2
16:23 55.8 °F 43.3 °F 30.1 in ESE 2 mph 4 mph 63% 0 in 65 W/m2
16:28 55.4 °F 43 °F 30.1 in Calm   1 mph 63% 0 in 76 W/m2
16:33 55.2 °F 43.7 °F 30.1 in ESE 2.9 mph 3 mph 65% 0 in 91 W/m2
16:38 55 °F 42.6 °F 30.1 in East 4 mph 7 mph 63% 0 in 93 W/m2
16:43 54.9 °F 42.4 °F 30.1 in Calm   2 mph 63% 0 in 97 W/m2
16:48 54.9 °F 42.4 °F 30.1 in Calm   6 mph 63% 0 in 105 W/m2
16:53 54.7 °F 42.8 °F 30.1 in East 0.9 mph 3 mph 64% 0 in 104 W/m2
16:58 54.7 °F 43.9 °F 30.1 in Calm   1 mph 67% 0 in 123 W/m2
17:03 54.7 °F 43.5 °F 30.1 in Calm   3 mph 66% 0 in 91 W/m2
17:08 54.5 °F 43.3 °F 30.1 in Calm   1 mph 66% 0 in 81 W/m2
17:13 54.3 °F 43.5 °F 30.1 in Calm   3 mph 67% 0 in 81 W/m2
17:18 54.3 °F 43.5 °F 30.1 in Calm   2 mph 67% 0 in 86 W/m2
17:23 54.1 °F 43 °F 30.1 in Calm   3 mph 66% 0 in 88 W/m2
17:28 54.1 °F 43.9 °F 30.1 in Calm   1 mph 68% 0 in 74 W/m2
17:33 54.1 °F 43 °F 30.1 in ENE 0.9 mph 4 mph 66% 0 in 65 W/m2
17:38 54.1 °F 43 °F 30.1 in Calm   1 mph 66% 0 in 54 W/m2
17:43 54 °F 42.4 °F 30.1 in Calm   4 mph 65% 0 in 49 W/m2
17:48 53.8 °F 43.2 °F 30.1 in Calm   1 mph 67% 0 in 46 W/m2
17:53 53.4 °F 42.8 °F 30.1 in SE 0.9 mph 1 mph 67% 0 in 42 W/m2
17:58 53.2 °F 43 °F 30.1 in SE 0.9 mph 1 mph 68% 0 in 37 W/m2
18:03 52.9 °F 43.3 °F 30.1 in Calm     70% 0 in 32 W/m2
18:08 52.5 °F 43.3 °F 30.1 in Calm   2 mph 71% 0 in 26 W/m2
18:13 52.2 °F 43.3 °F 30.1 in Calm     72% 0 in 21 W/m2
18:18 51.6 °F 43.3 °F 30.1 in Calm   2 mph 73% 0 in 18 W/m2
18:23 51.3 °F 43.3 °F 30.1 in Calm   1 mph 74% 0 in 11 W/m2
18:28 50.7 °F 43.2 °F 30.1 in Calm     75% 0 in 7 W/m2
18:33 50.4 °F 42.8 °F 30.1 in Calm     75% 0 in 0 W/m2
18:38 49.8 °F 42.6 °F 30.1 in Calm     76% 0 in 0 W/m2
18:43 49.5 °F 42.8 °F 30.1 in Calm   1 mph 78% 0 in 0 W/m2
18:48 48.9 °F 42.4 °F 30.1 in Calm     78% 0 in 0 W/m2
18:53 48.7 °F 42.4 °F 30.1 in Calm   1 mph 79% 0 in 0 W/m2
18:58 48.4 °F 42.4 °F 30.1 in SE 0.9 mph 2 mph 80% 0 in 0 W/m2
19:03 48 °F 42.1 °F 30.1 in Calm     80% 0 in 0 W/m2
19:08 47.8 °F 42.3 °F 30.1 in Calm     81% 0 in 0 W/m2
19:13 47.7 °F 42.4 °F 30.1 in Calm     82% 0 in 0 W/m2
19:18 47.5 °F 42.3 °F 30.1 in Calm     82% 0 in 0 W/m2
19:23 47.1 °F 41.9 °F 30.1 in Calm     82% 0 in 0 W/m2
19:28 46.9 °F 42.1 °F 30.1 in Calm   1 mph 83% 0 in 0 W/m2
19:33 46.8 °F 41.9 °F 30.1 in Calm   1 mph 83% 0 in 0 W/m2
19:38 46.6 °F 42.1 °F 30.1 in Calm     84% 0 in 0 W/m2
19:43 46.4 °F 42.1 °F 30.1 in SE 0.9 mph 1 mph 85% 0 in 0 W/m2
19:48 46.2 °F 41.9 °F 30.1 in Calm   1 mph 85% 0 in 0 W/m2
19:53 46 °F 41.7 °F 30.1 in Calm     85% 0 in 0 W/m2
19:58 46 °F 42.1 °F 30.1 in Calm   1 mph 86% 0 in 0 W/m2
20:03 45.9 °F 41.9 °F 30.1 in SE 0.9 mph 1 mph 86% 0 in 0 W/m2
20:08 45.7 °F 41.7 °F 30.1 in SE 0.9 mph 1 mph 86% 0 in 0 W/m2
20:13 45.7 °F 42.1 °F 30.1 in Calm   1 mph 87% 0 in 0 W/m2
20:18 45.3 °F 41.7 °F 30.1 in Calm     87% 0 in 0 W/m2
20:23 45.3 °F 41.7 °F 30.1 in Calm   1 mph 87% 0 in 0 W/m2
20:28 45.1 °F 41.5 °F 30.1 in Calm     87% 0 in 0 W/m2
20:33 45 °F 41.4 °F 30.1 in Calm     87% 0 in 0 W/m2
20:38 44.8 °F 41.2 °F 30.1 in Calm     87% 0 in 0 W/m2
20:43 44.4 °F 40.8 °F 30.1 in Calm     87% 0 in 0 W/m2
20:48 44.2 °F 41 °F 30 in Calm     88% 0 in 0 W/m2
20:53 44.2 °F 41 °F 30 in Calm     88% 0 in 0 W/m2
20:58 44.1 °F 40.8 °F 30 in Calm     88% 0 in 0 W/m2
21:03 44.1 °F 41 °F 30 in Calm   1 mph 89% 0 in 0 W/m2
21:08 43.9 °F 40.8 °F 30 in Calm   1 mph 89% 0 in 0 W/m2
21:13 43.9 °F 40.8 °F 30 in Calm     89% 0 in 0 W/m2
21:18 43.7 °F 40.6 °F 30 in Calm   1 mph 89% 0 in 0 W/m2
21:23 43.7 °F 41 °F 30 in Calm     90% 0 in 0 W/m2
21:28 43.5 °F 40.8 °F 30 in Calm     90% 0 in 0 W/m2
21:33 43.5 °F 40.8 °F 30 in Calm     90% 0 in 0 W/m2
21:38 43.5 °F 40.8 °F 30 in Calm     90% 0 in 0 W/m2
21:43 43.3 °F 40.6 °F 30 in Calm     90% 0 in 0 W/m2
21:48 43.3 °F 40.6 °F 30 in Calm     90% 0 in 0 W/m2
21:53 43.3 °F 40.6 °F 30 in Calm     90% 0 in 0 W/m2
21:58 43.3 °F 40.8 °F 30 in Calm     91% 0 in 0 W/m2
22:03 43.3 °F 40.8 °F 30 in Calm     91% 0 in 0 W/m2
22:09 43.3 °F 40.8 °F 30 in Calm     91% 0 in 0 W/m2
22:14 43.3 °F 40.8 °F 30 in Calm     91% 0 in 0 W/m2
22:19 43.2 °F 40.6 °F 30 in Calm     91% 0 in 0 W/m2
22:24 43.2 °F 40.6 °F 30 in Calm     91% 0 in 0 W/m2
22:29 43.2 °F 40.6 °F 30 in Calm     91% 0 in 0 W/m2
22:34 43 °F 40.5 °F 30 in Calm     91% 0 in 0 W/m2
22:39 43 °F 40.5 °F 30 in Calm     91% 0 in 0 W/m2
22:44 43 °F 40.5 °F 30 in Calm     91% 0 in 0 W/m2
22:49 43 °F 40.5 °F 30 in Calm     91% 0 in 0 W/m2
22:54 42.8 °F 40.3 °F 30 in Calm     91% 0 in 0 W/m2
22:59 42.6 °F 40.1 °F 30 in Calm     91% 0 in 0 W/m2
23:04 42.4 °F 39.9 °F 30 in Calm     91% 0 in 0 W/m2
23:09 42.4 °F 39.9 °F 30 in Calm     91% 0 in 0 W/m2
23:14 42.3 °F 39.7 °F 30 in Calm     91% 0 in 0 W/m2
Juneau County Weather
Compliments of Weather Underground - 4 mb